Time;durP1;ratioP1;P1;durP2;ratioP2;P2;SDS_P1;SDS_P2;PMS_P1;PMS_P2;Temp;Humidity;BMP_temperature;BMP_pressure;BME280_temperature;BME280_humidity;BME280_pressure;Samples;Min_cycle;Max_cycle;Signal;HPM_P1;HPM_P2
2022/03/16 00:02:22;;;;;;;4.28;3.03;;;;;;;17.85;19.33;101206.38;5109152;28;20038;-73
2022/03/16 00:04:52;;;;;;;7.68;3.08;;;;;;;17.84;19.11;101212.72;5109565;28;20035;-75
2022/03/16 00:07:19;;;;;;;7.35;2.70;;;;;;;17.83;19.24;101208.34;5109212;28;20133;-77
2022/03/16 00:09:45;;;;;;;4.03;2.92;;;;;;;17.83;19.32;101210.19;5109345;28;20024;-72
2022/03/16 00:12:11;;;;;;;2.92;2.45;;;;;;;17.82;19.47;101216.50;5109102;28;20168;-75
2022/03/16 00:14:37;;;;;;;4.40;2.90;;;;;;;17.81;19.17;101218.31;5109428;28;20023;-72
2022/03/16 00:17:04;;;;;;;3.67;2.55;;;;;;;17.79;19.09;101220.28;5109239;28;20032;-72
2022/03/16 00:19:30;;;;;;;4.53;3.03;;;;;;;17.82;19.31;101221.88;5091195;28;20179;-76
2022/03/16 00:21:57;;;;;;;4.72;3.13;;;;;;;17.81;19.19;101223.69;5108305;28;20082;-74
2022/03/16 00:24:22;;;;;;;4.95;3.10;;;;;;;17.81;19.12;101225.50;5109150;28;20069;-76
2022/03/16 00:26:48;;;;;;;4.15;2.58;;;;;;;17.79;19.33;101222.94;5109094;28;20024;-73
2022/03/16 00:29:13;;;;;;;4.68;3.08;;;;;;;17.75;19.33;101218.84;5095150;28;20016;-73
2022/03/16 00:31:39;;;;;;;5.95;3.00;;;;;;;17.75;19.42;101213.50;5076200;28;20016;-75
2022/03/16 00:34:04;;;;;;;4.18;2.90;;;;;;;17.76;19.46;101225.03;5108949;28;20024;-73
2022/03/16 00:36:30;;;;;;;3.97;2.53;;;;;;;17.76;19.67;101222.34;5108871;28;20028;-75
2022/03/16 00:38:55;;;;;;;4.60;3.20;;;;;;;17.75;19.28;101220.66;5108888;28;20027;-71
2022/03/16 00:41:21;;;;;;;4.82;3.08;;;;;;;17.77;19.40;101224.06;5108795;28;20093;-76
2022/03/16 00:43:46;;;;;;;5.03;2.80;;;;;;;17.76;19.30;101230.38;5108517;28;20087;-72
2022/03/16 00:46:12;;;;;;;3.80;2.80;;;;;;;17.72;19.22;101232.47;5108778;28;20019;-73
2022/03/16 00:48:37;;;;;;;4.30;2.78;;;;;;;17.74;19.40;101235.88;5108560;28;20140;-74
2022/03/16 00:51:03;;;;;;;4.38;2.97;;;;;;;17.76;19.36;101228.56;5108278;28;20061;-74
2022/03/16 00:53:30;;;;;;;6.25;2.97;;;;;;;17.77;19.33;101224.94;5108503;28;20022;-73
2022/03/16 00:55:56;;;;;;;3.95;2.60;;;;;;;17.78;19.30;101233.78;5108235;28;20225;-71
2022/03/16 00:58:24;;;;;;;5.00;3.28;;;;;;;17.77;19.33;101229.41;5108577;28;20085;-74
2022/03/16 01:00:50;;;;;;;4.80;3.05;;;;;;;17.77;19.14;101240.13;5108285;28;20324;-71
2022/03/16 01:03:16;;;;;;;7.70;3.05;;;;;;;17.76;19.47;101233.06;5108078;28;20024;-76
2022/03/16 01:05:41;;;;;;;4.07;3.22;;;;;;;17.76;19.54;101233.06;5108438;28;20020;-75
2022/03/16 01:08:07;;;;;;;4.70;3.30;;;;;;;17.73;19.48;101230.63;5107873;28;20099;-73
2022/03/16 01:10:33;;;;;;;3.85;2.50;;;;;;;17.75;19.48;101228.69;5108230;28;20214;-74
2022/03/16 01:12:58;;;;;;;4.35;2.72;;;;;;;17.73;19.56;101234.19;5090455;28;20027;-73
2022/03/16 01:15:24;;;;;;;5.13;3.20;;;;;;;17.74;19.76;101235.00;5107035;28;20133;-71
2022/03/16 01:17:52;;;;;;;4.10;2.90;;;;;;;17.75;19.50;101226.00;5108163;28;20038;-76
2022/03/16 01:20:19;;;;;;;3.72;2.75;;;;;;;17.76;19.39;101233.94;5108176;28;20132;-75
2022/03/16 01:22:45;;;;;;;4.53;3.03;;;;;;;17.77;19.23;101227.59;5107491;28;20099;-74
2022/03/16 01:25:11;;;;;;;6.88;3.35;;;;;;;17.76;19.47;101230.38;5107715;28;20141;-74
2022/03/16 01:27:37;;;;;;;4.88;3.25;;;;;;;17.78;19.38;101225.75;5107645;28;20020;-74
2022/03/16 01:30:04;;;;;;;4.82;2.70;;;;;;;17.77;19.54;101232.97;5087652;28;20036;-74
2022/03/16 01:32:29;;;;;;;4.10;2.60;;;;;;;17.75;19.64;101231.38;5087500;28;20032;-74
2022/03/16 01:34:55;;;;;;;4.20;3.13;;;;;;;17.74;19.54;101235.00;5105082;28;20057;-76
2022/03/16 01:37:21;;;;;;;5.28;3.22;;;;;;;17.70;19.63;101231.75;5107864;28;20023;-73
2022/03/16 01:39:46;;;;;;;4.43;2.80;;;;;;;17.72;19.82;101245.03;5107756;28;20012;-75
2022/03/16 01:42:12;;;;;;;5.10;3.38;;;;;;;17.72;19.57;101239.66;5107800;28;20047;-76
2022/03/16 01:44:49;;;;;;;4.43;3.10;;;;;;;17.73;20.06;101242.22;5107358;28;20024;-75
2022/03/16 01:47:17;;;;;;;4.63;3.40;;;;;;;17.70;19.42;101239.78;5107457;28;20047;-74
2022/03/16 01:49:43;;;;;;;5.90;3.50;;;;;;;17.71;19.61;101235.28;5107387;28;20097;-75
2022/03/16 01:52:10;;;;;;;3.55;2.90;;;;;;;17.73;19.54;101241.34;5107633;28;20027;-75
2022/03/16 01:54:38;;;;;;;4.22;3.17;;;;;;;17.75;19.54;101242.06;5107378;28;20136;-73
2022/03/16 01:57:04;;;;;;;8.05;3.17;;;;;;;17.77;19.32;101242.81;5107364;28;20032;-72
2022/03/16 01:59:30;;;;;;;5.95;2.70;;;;;;;17.77;19.55;101245.47;5107515;28;20023;-75
2022/03/16 02:01:56;;;;;;;4.78;3.10;;;;;;;17.74;19.77;101240.38;5107526;28;20023;-75
2022/03/16 02:04:22;;;;;;;4.43;2.90;;;;;;;17.75;19.80;101248.28;5107681;28;20079;-75
2022/03/16 02:06:47;;;;;;;5.47;3.17;;;;;;;17.78;19.81;101244.50;5107346;28;20020;-76
2022/03/16 02:09:13;;;;;;;6.50;3.20;;;;;;;17.78;19.59;101241.81;5107343;28;20020;-75
2022/03/16 02:11:38;;;;;;;6.07;3.63;;;;;;;17.77;19.56;101232.97;5107235;28;20031;-77
2022/03/16 02:14:04;;;;;;;4.35;3.22;;;;;;;17.76;19.66;101235.75;5107569;28;20032;-75
2022/03/16 02:16:35;;;;;;;6.40;3.10;;;;;;;17.75;19.66;101239.41;5107392;28;20256;-73
2022/03/16 02:19:01;;;;;;;5.18;4.10;;;;;;;17.77;19.69;101246.34;5106745;28;20023;-76
2022/03/16 02:21:28;;;;;;;5.13;3.28;;;;;;;17.79;19.75;101241.69;5107086;28;20035;-76
2022/03/16 02:23:53;;;;;;;5.13;3.58;;;;;;;17.78;19.75;101239.16;5089686;28;20069;-77
2022/03/16 02:26:25;;;;;;;4.63;3.75;;;;;;;17.78;19.45;101241.81;5091621;28;20216;-77
2022/03/16 02:28:51;;;;;;;5.25;3.55;;;;;;;17.80;19.64;101239.88;5100385;28;20047;-74
2022/03/16 02:31:17;;;;;;;6.57;3.72;;;;;;;17.80;19.42;101240.72;5108919;28;20020;-76
2022/03/16 02:33:43;;;;;;;6.05;3.35;;;;;;;17.82;19.80;101235.25;5092859;28;20268;-76
2022/03/16 02:36:09;;;;;;;4.68;3.15;;;;;;;17.79;19.67;101232.81;5110985;28;20118;-76
2022/03/16 02:38:35;;;;;;;5.72;3.28;;;;;;;17.79;19.61;101238.19;5111252;28;20081;-77
2022/03/16 02:41:01;;;;;;;4.93;3.05;;;;;;;17.79;19.55;101239.00;5111153;28;20036;-73
2022/03/16 02:43:27;;;;;;;8.32;4.32;;;;;;;17.80;19.42;101240.72;5111179;28;20023;-75
2022/03/16 02:45:53;;;;;;;5.32;3.42;;;;;;;17.81;19.77;101246.94;5111082;28;20066;-78
2022/03/16 02:48:19;;;;;;;5.75;3.97;;;;;;;17.81;19.58;101238.91;5110739;28;20024;-79
2022/03/16 02:50:44;;;;;;;5.18;3.33;;;;;;;17.81;19.44;101241.56;5110912;28;20024;-76
2022/03/16 02:53:10;;;;;;;4.25;3.60;;;;;;;17.80;19.16;101246.06;5110394;28;20293;-76
2022/03/16 02:55:36;;;;;;;5.35;3.75;;;;;;;17.80;19.15;101246.06;5110933;28;20012;-76
2022/03/16 02:58:02;;;;;;;4.28;3.15;;;;;;;17.83;19.31;101244.97;5110798;28;20030;-76
2022/03/16 03:00:28;;;;;;;4.55;3.60;;;;;;;17.81;19.32;101242.41;5110179;28;20125;-77
2022/03/16 03:02:54;;;;;;;4.88;3.53;;;;;;;17.80;19.84;101238.03;5092235;28;20008;-76
2022/03/16 03:05:21;;;;;;;5.30;3.85;;;;;;;17.81;19.66;101241.56;5110529;28;20021;-77
2022/03/16 03:07:46;;;;;;;5.53;3.33;;;;;;;17.81;19.78;101250.44;5110620;28;20061;-79
2022/03/16 03:10:12;;;;;;;5.55;3.42;;;;;;;17.81;19.65;101246.94;5110537;28;20024;-74
2022/03/16 03:12:37;;;;;;;4.68;3.40;;;;;;;17.80;19.59;101254.09;5109853;28;20011;-76
2022/03/16 03:15:04;;;;;;;6.03;3.28;;;;;;;17.81;19.66;101252.28;5110262;28;20015;-75
2022/03/16 03:17:30;;;;;;;5.60;3.05;;;;;;;17.80;19.98;101250.59;5110091;28;20012;-76
2022/03/16 03:19:56;;;;;;;5.15;3.25;;;;;;;17.78;19.95;101252.53;5110418;28;20023;-76
2022/03/16 03:22:26;;;;;;;8.60;3.75;;;;;;;17.78;20.07;101257.88;5110043;28;20024;-76
2022/03/16 03:24:52;;;;;;;4.72;3.28;;;;;;;17.75;19.90;101259.00;5109990;28;20062;-72
2022/03/16 03:27:17;;;;;;;4.82;3.35;;;;;;;17.77;20.17;101270.44;5110144;28;20016;-75
2022/03/16 03:29:43;;;;;;;4.32;3.70;;;;;;;17.77;20.08;101262.41;5092098;28;20020;-75
2022/03/16 03:32:08;;;;;;;5.00;3.53;;;;;;;17.73;20.17;101258.28;5099207;28;20032;-74
2022/03/16 03:34:34;;;;;;;4.72;3.28;;;;;;;17.74;20.19;101256.44;5110237;28;20114;-73
2022/03/16 03:36:59;;;;;;;5.28;3.67;;;;;;;17.72;19.93;101264.59;5109635;28;20208;-77
2022/03/16 03:39:25;;;;;;;6.80;3.70;;;;;;;17.72;19.83;101269.97;5110000;28;20035;-78
2022/03/16 03:41:50;;;;;;;5.43;3.97;;;;;;;17.73;20.01;101271.66;5109411;28;20015;-77
2022/03/16 03:44:16;;;;;;;5.55;3.65;;;;;;;17.73;19.68;101276.16;5109723;28;20035;-75
2022/03/16 03:46:41;;;;;;;5.70;3.78;;;;;;;17.73;19.82;101270.78;5092104;28;20038;-76
2022/03/16 03:49:07;;;;;;;6.18;4.28;;;;;;;17.75;20.10;101275.06;5109730;28;20012;-77
2022/03/16 03:51:32;;;;;;;5.85;4.55;;;;;;;17.79;20.14;101278.34;5109750;28;20057;-74
2022/03/16 03:53:58;;;;;;;7.20;4.38;;;;;;;17.81;20.14;101279.91;5109637;28;20020;-76
2022/03/16 03:56:23;;;;;;;7.65;5.22;;;;;;;17.81;20.13;101276.38;5109325;28;20161;-75
2022/03/16 03:58:49;;;;;;;5.03;4.22;;;;;;;17.82;19.77;101278.09;5109683;28;20061;-74
2022/03/16 04:01:17;;;;;;;7.78;6.25;;;;;;;17.86;19.90;101287.59;5091519;28;20012;-78
2022/03/16 04:03:43;;;;;;;10.05;5.43;;;;;;;17.86;19.91;101282.22;5109588;28;20028;-75
2022/03/16 04:06:10;;;;;;;9.90;6.65;;;;;;;17.87;19.96;101283.06;5109584;28;20016;-75
2022/03/16 04:08:35;;;;;;;6.32;4.90;;;;;;;17.90;19.63;101289.00;5091385;28;20125;-75
2022/03/16 04:11:01;;;;;;;6.95;5.80;;;;;;;17.89;19.92;101286.47;5109145;28;20042;-74
2022/03/16 04:13:26;;;;;;;8.55;5.53;;;;;;;17.87;19.70;101291.94;5109432;28;20016;-76
2022/03/16 04:15:52;;;;;;;8.70;5.22;;;;;;;17.89;19.88;101294.50;5109321;28;20069;-74
2022/03/16 04:18:18;;;;;;;8.90;5.88;;;;;;;17.85;19.92;101292.06;5109333;28;20137;-78
2022/03/16 04:20:43;;;;;;;8.55;5.40;;;;;;;17.89;19.69;101297.19;5109260;28;20243;-76
2022/03/16 04:23:09;;;;;;;8.85;5.63;;;;;;;17.89;20.16;101298.00;5109034;28;20023;-75
2022/03/16 04:25:34;;;;;;;10.73;5.68;;;;;;;17.88;20.00;101301.66;5109222;28;20030;-74
2022/03/16 04:28:00;;;;;;;10.77;5.28;;;;;;;17.92;20.01;101310.31;5105255;28;20024;-72
2022/03/16 04:30:25;;;;;;;9.23;6.28;;;;;;;17.95;19.92;101308.25;5088828;28;20043;-74
2022/03/16 04:32:52;;;;;;;7.43;5.72;;;;;;;18.01;20.06;101314.13;5100095;28;20313;-73
2022/03/16 04:35:19;;;;;;;9.43;5.53;;;;;;;18.04;20.04;101305.81;5108949;28;20087;-76
2022/03/16 04:37:46;;;;;;;6.82;5.43;;;;;;;18.11;20.01;101317.72;5108561;28;20020;-73
2022/03/16 04:40:13;;;;;;;12.02;6.85;;;;;;;18.13;19.91;101321.97;5108930;28;20011;-75
2022/03/16 04:42:38;;;;;;;6.30;4.80;;;;;;;18.20;19.83;101305.41;5108597;28;20079;-74
2022/03/16 04:45:04;;;;;;;7.88;5.55;;;;;;;18.25;19.81;101312.06;5108500;28;20016;-77
2022/03/16 04:47:30;;;;;;;6.78;5.47;;;;;;;18.29;19.73;101310.84;5108252;28;20018;-76
2022/03/16 04:49:55;;;;;;;9.52;5.93;;;;;;;18.35;19.64;101317.53;5107152;28;20008;-75
2022/03/16 04:52:21;;;;;;;8.35;5.80;;;;;;;18.43;19.56;101320.41;5108738;28;20102;-76
2022/03/16 04:54:47;;;;;;;7.57;5.85;;;;;;;18.50;19.49;101323.41;5108549;28;20285;-76
2022/03/16 04:57:13;;;;;;;9.82;6.18;;;;;;;18.55;19.53;101326.56;5107992;28;20023;-76
2022/03/16 04:59:38;;;;;;;8.43;6.57;;;;;;;18.61;19.40;101322.50;5108234;28;20032;-77
2022/03/16 05:02:04;;;;;;;7.75;5.90;;;;;;;18.65;19.42;101323.97;5108372;28;20251;-76
2022/03/16 05:04:30;;;;;;;8.82;5.47;;;;;;;18.73;19.55;101326.00;5108444;28;20063;-75
2022/03/16 05:06:55;;;;;;;8.05;6.60;;;;;;;18.77;19.36;101316.69;5090279;28;20022;-75
2022/03/16 05:09:21;;;;;;;7.88;5.90;;;;;;;18.80;19.43;101323.66;5107848;28;20020;-74
2022/03/16 05:11:46;;;;;;;10.88;5.85;;;;;;;18.86;19.28;101329.34;5108130;28;20026;-77
2022/03/16 05:14:12;;;;;;;15.23;7.22;;;;;;;18.94;19.45;101327.81;5107145;28;20031;-76
2022/03/16 05:16:38;;;;;;;7.57;5.93;;;;;;;18.99;19.42;101339.03;5107778;28;20020;-73
2022/03/16 05:19:03;;;;;;;13.80;7.90;;;;;;;19.02;19.39;101333.41;5107987;28;20012;-74
2022/03/16 05:21:29;;;;;;;9.15;7.28;;;;;;;19.08;19.55;101337.41;5107845;28;20005;-74
2022/03/16 05:23:54;;;;;;;9.20;6.32;;;;;;;19.14;19.47;101332.34;5107587;28;20087;-74
2022/03/16 05:26:20;;;;;;;10.38;7.38;;;;;;;19.21;19.28;101340.72;5107882;28;20016;-74
2022/03/16 05:28:45;;;;;;;9.48;7.20;;;;;;;19.28;19.62;101343.72;5102368;28;20230;-74
2022/03/16 05:31:11;;;;;;;9.40;6.53;;;;;;;19.31;19.63;101330.88;5107810;28;20027;-77
2022/03/16 05:33:36;;;;;;;8.90;6.50;;;;;;;19.26;19.51;101332.25;5108167;28;20032;-74
2022/03/16 05:36:02;;;;;;;11.25;7.53;;;;;;;19.25;19.58;101338.59;5107521;28;20016;-78
2022/03/16 05:38:28;;;;;;;9.10;6.45;;;;;;;19.25;19.76;101338.59;5107233;28;20015;-74
2022/03/16 05:40:54;;;;;;;10.93;6.97;;;;;;;19.25;19.76;101338.59;5107174;28;20125;-75
2022/03/16 05:43:21;;;;;;;8.55;5.90;;;;;;;19.24;19.95;101345.81;5107929;28;20164;-78
2022/03/16 05:45:49;;;;;;;11.50;6.97;;;;;;;19.24;20.08;101342.28;5107766;28;20023;-78
2022/03/16 05:48:15;;;;;;;12.68;6.75;;;;;;;19.20;20.10;101347.91;5107780;28;20247;-76
2022/03/16 05:50:44;;;;;;;12.30;7.05;;;;;;;19.21;20.29;101349.59;5107851;28;20233;-73
2022/03/16 05:53:10;;;;;;;8.30;6.20;;;;;;;19.22;20.14;101350.47;5107088;28;20144;-75
2022/03/16 05:55:35;;;;;;;9.48;6.55;;;;;;;19.23;20.23;101346.81;5107789;28;20030;-75
2022/03/16 05:58:01;;;;;;;8.63;6.10;;;;;;;19.23;20.37;101352.16;5107707;28;20016;-74
2022/03/16 06:00:27;;;;;;;10.63;5.95;;;;;;;19.24;20.40;101350.31;5107244;28;20012;-74
2022/03/16 06:02:53;;;;;;;7.95;6.05;;;;;;;19.21;20.51;101346.91;5107084;28;20024;-75
2022/03/16 06:05:19;;;;;;;10.02;6.13;;;;;;;19.27;20.30;101358.09;5107538;28;20048;-75
2022/03/16 06:07:45;;;;;;;8.35;5.88;;;;;;;19.26;20.35;101357.28;5107299;28;20008;-76
2022/03/16 06:10:15;;;;;;;9.05;5.97;;;;;;;19.26;20.21;101346.53;5107585;28;20012;-76
2022/03/16 06:12:54;;;;;;;7.15;5.72;;;;;;;19.27;20.35;101358.09;5107362;28;20240;-77
2022/03/16 06:15:20;;;;;;;8.20;6.22;;;;;;;19.28;20.35;101357.97;5107605;28;20047;-77
2022/03/16 06:17:46;;;;;;;10.52;6.18;;;;;;;19.29;20.34;101361.50;5106527;28;20012;-77
2022/03/16 06:20:11;;;;;;;9.32;5.32;;;;;;;19.31;20.67;101368.44;5089863;28;20122;-73
2022/03/16 06:22:37;;;;;;;6.70;5.00;;;;;;;19.31;20.65;101368.44;5107454;28;20028;-74
2022/03/16 06:25:03;;;;;;;9.13;4.97;;;;;;;19.29;20.29;101373.09;5107433;28;20020;-76
2022/03/16 06:27:28;;;;;;;13.20;6.18;;;;;;;19.31;20.05;101376.50;5106985;28;20023;-74
2022/03/16 06:29:54;;;;;;;7.85;5.78;;;;;;;19.32;20.07;101378.19;5101753;28;20048;-75
2022/03/16 06:32:19;;;;;;;7.80;5.85;;;;;;;19.32;20.01;101377.34;5106517;28;20028;-72
2022/03/16 06:34:46;;;;;;;7.30;5.57;;;;;;;19.35;20.24;101369.00;5107096;28;20235;-75
2022/03/16 06:37:13;;;;;;;11.30;6.75;;;;;;;19.35;19.94;101371.69;5107284;28;20024;-76
2022/03/16 06:39:38;;;;;;;11.60;6.47;;;;;;;19.33;20.09;101373.69;5107356;28;20012;-76
2022/03/16 06:42:04;;;;;;;7.25;6.25;;;;;;;19.35;20.00;101377.94;5106823;28;20239;-76
2022/03/16 06:44:30;;;;;;;10.55;7.18;;;;;;;19.35;19.88;101377.94;5107268;28;20031;-76
2022/03/16 06:46:55;;;;;;;7.18;5.63;;;;;;;19.33;19.76;101377.22;5107078;28;20229;-76
2022/03/16 06:49:21;;;;;;;10.77;6.05;;;;;;;19.33;19.86;101379.91;5107194;28;20141;-76
2022/03/16 06:51:46;;;;;;;8.02;5.40;;;;;;;19.34;20.04;101378.06;5106786;28;20028;-75
2022/03/16 06:54:12;;;;;;;9.02;5.93;;;;;;;19.35;19.75;101371.69;5107156;28;20035;-74
2022/03/16 06:56:38;;;;;;;8.52;6.20;;;;;;;19.35;19.62;101380.63;5106726;28;20038;-75
2022/03/16 06:59:04;;;;;;;9.13;6.40;;;;;;;19.38;19.52;101389.41;5106754;28;20047;-72
2022/03/16 07:01:30;;;;;;;7.03;5.25;;;;;;;19.39;19.59;101391.09;5105998;28;20032;-75
2022/03/16 07:03:55;;;;;;;6.50;5.40;;;;;;;19.40;19.73;101396.31;5106900;28;20038;-77
2022/03/16 07:06:21;;;;;;;11.77;6.03;;;;;;;19.42;19.63;101393.50;5106539;28;20023;-73
2022/03/16 07:08:47;;;;;;;7.63;5.03;;;;;;;19.43;19.67;101393.38;5089218;28;20265;-74
2022/03/16 07:11:12;;;;;;;8.55;5.82;;;;;;;19.45;19.51;101399.47;5106597;28;20016;-72
2022/03/16 07:13:41;;;;;;;8.52;5.28;;;;;;;19.48;19.62;101401.03;5090997;28;20296;-75
2022/03/16 07:16:08;;;;;;;7.20;4.97;;;;;;;19.51;19.45;101398.06;5110491;28;20019;-74
2022/03/16 07:18:33;;;;;;;7.03;4.38;;;;;;;19.55;19.52;101409.38;5110427;28;20228;-72
2022/03/16 07:20:59;;;;;;;9.40;6.03;;;;;;;19.55;19.62;101407.56;5110042;28;20024;-76
2022/03/16 07:23:25;;;;;;;8.55;5.13;;;;;;;19.56;19.63;101401.19;5110167;28;20043;-72
2022/03/16 07:25:52;;;;;;;9.27;5.65;;;;;;;19.56;19.45;101413.78;5110526;28;20269;-75
2022/03/16 07:28:19;;;;;;;6.88;5.13;;;;;;;19.59;19.40;101402.78;5103768;28;20146;-72
2022/03/16 07:30:45;;;;;;;8.65;5.47;;;;;;;19.59;19.60;101400.09;5089944;28;20048;-74
2022/03/16 07:33:11;;;;;;;7.97;5.03;;;;;;;19.61;19.22;101398.97;5089871;28;20293;-73
2022/03/16 07:35:38;;;;;;;7.18;4.82;;;;;;;19.59;19.04;101403.63;5089907;28;20028;-73
2022/03/16 07:38:04;;;;;;;8.18;5.53;;;;;;;19.59;19.09;101406.28;5105175;28;20137;-74
2022/03/16 07:40:33;;;;;;;6.05;4.40;;;;;;;19.62;19.66;101407.88;5110123;28;20024;-71
2022/03/16 07:42:59;;;;;;;6.75;4.60;;;;;;;19.63;19.29;101398.84;5109370;28;20020;-72
2022/03/16 07:45:25;;;;;;;8.18;5.25;;;;;;;19.64;19.14;101401.38;5109479;28;20167;-74
2022/03/16 07:47:56;;;;;;;5.45;4.68;;;;;;;19.66;19.02;101398.56;5109800;28;20023;-73
2022/03/16 07:50:23;;;;;;;6.15;4.47;;;;;;;19.64;18.89;101393.31;5109798;28;20016;-74
2022/03/16 07:52:48;;;;;;;6.60;4.72;;;;;;;19.67;18.77;101397.56;5108814;28;20274;-73
2022/03/16 07:55:14;;;;;;;7.45;4.55;;;;;;;19.66;18.98;101387.81;5109543;28;20023;-72
2022/03/16 07:57:41;;;;;;;6.43;5.43;;;;;;;19.67;18.97;101381.47;5109800;28;20035;-74
2022/03/16 08:00:10;;;;;;;5.45;4.93;;;;;;;19.69;18.78;101386.72;5109289;28;20047;-75
2022/03/16 08:02:36;;;;;;;7.57;5.07;;;;;;;19.69;18.64;101384.88;5109318;28;20052;-73
2022/03/16 08:05:02;;;;;;;8.00;4.75;;;;;;;19.68;18.78;101380.47;5109642;28;20035;-74
2022/03/16 08:07:28;;;;;;;9.40;5.15;;;;;;;19.67;18.91;101386.81;5109524;28;20237;-75
2022/03/16 08:09:54;;;;;;;7.78;4.47;;;;;;;19.69;18.95;101384.03;5109477;28;20236;-74
2022/03/16 08:12:20;;;;;;;9.75;5.00;;;;;;;19.67;18.99;101389.50;5108788;28;20079;-75
2022/03/16 08:14:45;;;;;;;8.68;5.13;;;;;;;19.68;19.07;101388.53;5109440;28;20051;-75
2022/03/16 08:17:11;;;;;;;8.23;5.20;;;;;;;19.68;19.08;101385.84;5108964;28;20051;-75
2022/03/16 08:19:36;;;;;;;8.10;5.45;;;;;;;19.71;18.84;101382.91;5109224;28;20028;-76
2022/03/16 08:22:02;;;;;;;7.10;5.13;;;;;;;19.73;19.04;101389.00;5108521;28;20027;-74
2022/03/16 08:24:27;;;;;;;7.35;5.20;;;;;;;19.74;18.79;101392.50;5108765;28;20024;-71
2022/03/16 08:26:53;;;;;;;6.90;4.68;;;;;;;19.75;18.75;101389.69;5109023;28;20053;-75
2022/03/16 08:29:18;;;;;;;7.30;4.65;;;;;;;19.75;18.86;101384.34;5094373;28;20024;-72
2022/03/16 08:31:44;;;;;;;6.85;4.30;;;;;;;19.76;19.11;101391.41;5095394;28;20290;-71
2022/03/16 08:34:09;;;;;;;6.72;4.75;;;;;;;19.80;18.99;101394.66;5108832;28;20055;-72
2022/03/16 08:36:35;;;;;;;7.68;4.55;;;;;;;19.81;18.84;101391.00;5108507;28;20055;-73
2022/03/16 08:39:03;;;;;;;7.80;4.68;;;;;;;19.81;18.78;101389.16;5108920;28;20020;-73
2022/03/16 08:41:28;;;;;;;8.82;4.40;;;;;;;19.79;19.18;101388.44;5090601;28;20148;-71
2022/03/16 08:43:54;;;;;;;7.97;4.95;;;;;;;19.80;18.78;101387.44;5108803;28;20028;-72
2022/03/16 08:46:20;;;;;;;6.25;4.85;;;;;;;19.79;18.52;101399.16;5108836;28;20028;-73
2022/03/16 08:48:45;;;;;;;7.50;4.38;;;;;;;19.79;18.85;101388.44;5108808;28;20039;-72
2022/03/16 08:51:11;;;;;;;6.15;5.13;;;;;;;19.79;18.85;101384.91;5108672;28;20027;-72
2022/03/16 08:53:37;;;;;;;8.18;5.15;;;;;;;19.77;18.83;101382.38;5108418;28;20032;-74
2022/03/16 08:56:03;;;;;;;9.10;4.78;;;;;;;19.78;18.99;101383.19;5108493;28;20103;-75
2022/03/16 08:58:29;;;;;;;8.82;4.47;;;;;;;19.79;18.96;101396.47;5108651;28;20024;-74
2022/03/16 09:00:54;;;;;;;4.78;3.75;;;;;;;19.82;20.48;101390.84;5108326;28;20225;-72
2022/03/16 09:03:20;;;;;;;6.28;4.05;;;;;;;19.94;20.83;101388.06;5108330;28;20027;-75
2022/03/16 09:05:46;;;;;;;5.82;4.38;;;;;;;19.99;20.18;101387.69;5108375;28;20019;-72
2022/03/16 09:08:12;;;;;;;5.70;4.03;;;;;;;20.06;21.00;101392.38;5107452;28;20016;-74
2022/03/16 09:10:38;;;;;;;6.28;3.90;;;;;;;20.16;21.43;101391.53;5108343;28;20043;-74
2022/03/16 09:13:04;;;;;;;5.82;4.05;;;;;;;20.20;21.31;101395.66;5108053;28;20047;-71
2022/03/16 09:15:30;;;;;;;4.35;3.13;;;;;;;20.28;21.74;101395.81;5108163;28;20020;-75
2022/03/16 09:17:56;;;;;;;6.10;3.38;;;;;;;20.35;21.72;101390.72;5108307;28;20030;-74
2022/03/16 09:20:21;;;;;;;5.60;3.63;;;;;;;20.42;22.03;101392.72;5108231;28;20137;-73
2022/03/16 09:22:47;;;;;;;4.53;3.33;;;;;;;20.48;22.34;101387.78;5108068;28;20050;-73
2022/03/16 09:25:12;;;;;;;8.90;4.38;;;;;;;20.52;22.26;101383.78;5108028;28;20020;-72
2022/03/16 09:27:38;;;;;;;5.28;4.35;;;;;;;20.59;22.00;101393.00;5107131;28;20039;-72
2022/03/16 09:30:05;;;;;;;8.32;4.20;;;;;;;20.63;22.09;101380.13;5093823;28;20031;-73
2022/03/16 09:32:33;;;;;;;7.75;4.15;;;;;;;20.69;22.14;101382.25;5107585;28;20241;-75
2022/03/16 09:34:59;;;;;;;6.35;3.83;;;;;;;20.74;22.44;101388.91;5107230;28;20034;-74
2022/03/16 09:37:25;;;;;;;5.53;3.83;;;;;;;20.80;21.89;101383.97;5107312;28;20168;-73
2022/03/16 09:39:51;;;;;;;4.18;3.40;;;;;;;20.80;22.59;101373.22;5107993;28;20069;-72
2022/03/16 09:42:19;;;;;;;6.10;4.28;;;;;;;20.78;22.06;101369.81;5107839;28;20040;-75
2022/03/16 09:44:46;;;;;;;5.80;4.57;;;;;;;20.80;21.16;101378.59;5107788;28;20028;-73
2022/03/16 09:47:12;;;;;;;9.55;4.70;;;;;;;20.75;20.93;101379.00;5107451;28;20031;-73
2022/03/16 09:49:38;;;;;;;5.15;4.07;;;;;;;20.72;20.56;101377.44;5107579;28;20051;-74
2022/03/16 09:52:07;;;;;;;8.90;4.78;;;;;;;20.69;19.91;101376.88;5107708;28;20069;-72
2022/03/16 09:54:33;;;;;;;5.38;4.05;;;;;;;20.65;20.70;101379.00;5106702;28;20027;-75
2022/03/16 09:56:58;;;;;;;7.38;4.38;;;;;;;20.67;21.26;101378.84;5106354;28;20184;-73
2022/03/16 09:59:24;;;;;;;9.25;4.22;;;;;;;20.71;21.39;101386.47;5107575;28;20023;-74
2022/03/16 10:01:58;;;;;;;6.28;4.40;;;;;;;20.79;21.55;101376.91;5105828;28;20081;-74
2022/03/16 10:04:33;;;;;;;6.60;3.72;;;;;;;20.81;21.94;101377.59;5106932;28;20012;-74
2022/03/16 10:07:00;;;;;;;5.30;3.60;;;;;;;20.87;21.97;101372.50;5105838;28;20066;-75
2022/03/16 10:15:10;;;;;;;5.03;3.63;;;;;;;20.86;19.99;101372.63;5087273;28;20244;-74
2022/03/16 10:17:43;;;;;;;5.07;3.97;;;;;;;20.84;19.56;101363.84;5106551;28;20012;-74
2022/03/16 10:20:09;;;;;;;4.43;3.58;;;;;;;20.79;19.08;101364.28;5107045;28;20087;-73
2022/03/16 10:22:38;;;;;;;4.35;3.63;;;;;;;20.75;19.15;101376.31;5106046;28;20024;-74
2022/03/16 10:25:07;;;;;;;5.20;3.92;;;;;;;20.70;18.86;101365.13;5107196;28;20155;-76
2022/03/16 10:27:37;;;;;;;5.60;3.05;;;;;;;20.68;20.65;101373.31;5106570;28;20179;-74
2022/03/16 10:30:07;;;;;;;11.95;3.72;;;;;;;20.71;20.06;101373.03;5107232;28;20178;-73
2022/03/16 10:32:32;;;;;;;6.82;4.15;;;;;;;20.69;19.57;101376.88;5103474;28;20303;-70
2022/03/16 10:35:06;;;;;;;5.38;3.63;;;;;;;20.61;19.13;101377.56;5107435;28;20046;-76
2022/03/16 10:37:36;;;;;;;6.85;3.83;;;;;;;20.55;18.90;101370.94;5106886;28;20039;-73
2022/03/16 10:40:17;;;;;;;5.07;3.72;;;;;;;20.47;18.82;101373.47;5106690;28;20024;-73
2022/03/16 10:48:21;;;;;;;8.77;4.22;;;;;;;20.35;18.71;101372.75;5100064;28;20069;-75
2022/03/16 10:50:48;;;;;;;6.68;4.43;;;;;;;20.32;18.50;101364.09;5107491;28;20023;-73
2022/03/16 10:53:16;;;;;;;6.30;4.30;;;;;;;20.27;18.57;101356.47;5108032;28;20124;-72
2022/03/16 10:55:44;;;;;;;5.63;3.15;;;;;;;20.23;18.81;101357.72;5107676;28;20028;-71
2022/03/16 10:58:13;;;;;;;7.13;4.13;;;;;;;20.20;18.47;101366.94;5110672;28;20109;-71
2022/03/16 11:00:40;;;;;;;4.70;3.60;;;;;;;20.18;18.50;101357.31;5105736;28;20017;-72
2022/03/16 11:03:07;;;;;;;5.53;4.03;;;;;;;20.15;18.42;101352.22;5109501;28;20073;-70
2022/03/16 11:05:37;;;;;;;8.15;4.00;;;;;;;20.11;18.45;101367.78;5099402;28;20026;-71
2022/03/16 11:08:08;;;;;;;5.63;3.63;;;;;;;20.10;18.45;101364.22;5105137;28;20043;-72
2022/03/16 11:10:36;;;;;;;7.00;4.10;;;;;;;20.06;18.31;101365.50;5108461;28;20027;-71
2022/03/16 11:15:52;;;;;;;6.22;3.40;;;;;;;20.04;18.34;101369.31;5109579;28;20061;-72
2022/03/16 11:18:18;;;;;;;5.25;3.80;;;;;;;20.04;18.46;101362.09;5109905;28;20016;-71
2022/03/16 11:20:47;;;;;;;6.68;3.65;;;;;;;20.01;18.38;101359.69;5091668;28;20048;-72
2022/03/16 11:26:21;;;;;;;7.75;4.97;;;;;;;19.95;18.26;101347.66;5104957;28;20166;-74
2022/03/16 11:29:20;;;;;;;5.88;3.25;;;;;;;19.92;18.79;101347.94;5107987;28;20020;-74
2022/03/16 11:31:47;;;;;;;5.05;3.63;;;;;;;19.87;18.59;101346.66;5109410;28;20176;-73
2022/03/16 11:34:21;;;;;;;6.38;3.97;;;;;;;19.87;18.39;101349.34;5107664;28;20312;-72
2022/03/16 11:37:03;;;;;;;4.80;4.05;;;;;;;19.84;18.28;101353.13;5108749;28;20028;-72
2022/03/16 11:39:41;;;;;;;5.80;4.20;;;;;;;19.82;18.11;101357.78;5109281;28;20020;-73